createdAt,value
2023-05-04T00:01:13.682Z,0.50
2023-05-04T00:03:44.143Z,0.60
2023-05-04T00:06:14.663Z,0.55
2023-05-04T00:08:44.859Z,0.70
2023-05-04T00:11:15.178Z,0.70
2023-05-04T00:13:45.404Z,0.40
2023-05-04T00:16:15.644Z,0.55
2023-05-04T00:18:45.874Z,0.50
2023-05-04T00:21:16.109Z,0.65
2023-05-04T00:23:46.293Z,0.60
2023-05-04T00:26:16.640Z,0.57
2023-05-04T00:28:46.971Z,0.50
2023-05-04T00:31:20.518Z,0.45
2023-05-04T00:33:50.862Z,0.55
2023-05-04T00:36:21.101Z,0.40
2023-05-04T00:38:56.356Z,0.50
2023-05-04T00:41:26.504Z,0.40
2023-05-04T00:43:56.763Z,0.40
2023-05-04T00:46:27.146Z,0.43
2023-05-04T00:48:57.466Z,0.60
2023-05-04T00:51:29.040Z,0.70
2023-05-04T00:54:00.232Z,0.50
2023-05-04T00:56:31.809Z,0.52
2023-05-04T00:59:02.048Z,0.52
2023-05-04T01:01:32.383Z,0.40
2023-05-04T01:04:02.822Z,0.50
2023-05-04T01:06:33.301Z,0.50
2023-05-04T01:09:12.494Z,0.80
2023-05-04T01:12:06.231Z,0.60
2023-05-04T01:14:38.076Z,0.40
2023-05-04T01:17:10.255Z,0.40
2023-05-04T01:19:40.562Z,0.45
2023-05-04T01:22:10.846Z,0.38
2023-05-04T01:24:41.428Z,0.40
2023-05-04T01:27:21.248Z,0.50
2023-05-04T01:30:23.560Z,0.32
2023-05-04T01:32:55.019Z,0.50
2023-05-04T01:35:25.780Z,0.30
2023-05-04T01:37:56.750Z,0.30
2023-05-04T01:40:27.028Z,0.40
2023-05-04T01:42:57.508Z,0.60
2023-05-04T01:45:27.932Z,0.35
2023-05-04T01:47:58.214Z,0.38
2023-05-04T01:50:28.578Z,0.35
2023-05-04T01:52:58.820Z,0.55
2023-05-04T01:55:28.986Z,0.30
2023-05-04T01:57:59.210Z,0.30
2023-05-04T02:00:30.221Z,0.40
2023-05-04T02:03:00.446Z,0.60
2023-05-04T02:05:30.785Z,0.50
2023-05-04T02:08:01.113Z,0.30
2023-05-04T02:10:31.568Z,0.40
2023-05-04T02:13:02.847Z,0.45
2023-05-04T02:15:33.252Z,0.30
2023-05-04T02:18:03.504Z,0.50
2023-05-04T02:20:33.675Z,0.30
2023-05-04T02:23:03.922Z,0.40
2023-05-04T02:25:34.369Z,0.40
2023-05-04T02:28:04.614Z,0.30
2023-05-04T02:30:34.902Z,0.30
2023-05-04T02:33:06.273Z,0.30
2023-05-04T02:35:36.615Z,0.30
2023-05-04T02:38:06.909Z,0.30
2023-05-04T02:40:37.093Z,0.35
2023-05-04T02:43:07.358Z,0.28
2023-05-04T02:45:38.742Z,0.20
2023-05-04T02:48:09.233Z,0.40
2023-05-04T02:50:39.728Z,0.20
2023-05-04T02:53:10.768Z,0.20
2023-05-04T02:55:41.116Z,0.20
2023-05-04T02:58:11.515Z,0.20
2023-05-04T03:00:41.768Z,0.30
2023-05-04T03:03:12.032Z,0.20
2023-05-04T03:05:42.241Z,0.20
2023-05-04T03:08:12.871Z,0.40
2023-05-04T03:10:43.125Z,0.40
2023-05-04T03:13:13.432Z,0.45
2023-05-04T03:15:43.701Z,0.20
2023-05-04T03:18:14.012Z,0.30
2023-05-04T03:20:44.315Z,0.20
2023-05-04T03:23:14.466Z,0.22
2023-05-04T03:25:44.728Z,0.30
2023-05-04T03:28:15.359Z,0.30
2023-05-04T03:30:45.535Z,0.30
2023-05-04T03:33:15.853Z,0.30
2023-05-04T03:35:46.118Z,0.30
2023-05-04T03:38:16.845Z,0.32
2023-05-04T03:40:47.580Z,0.38
2023-05-04T03:43:17.814Z,0.28
2023-05-04T03:45:48.264Z,0.32
2023-05-04T03:48:18.465Z,0.20
2023-05-04T03:50:48.808Z,0.20
2023-05-04T03:53:19.230Z,0.30
2023-05-04T03:55:49.549Z,0.40
2023-05-04T03:58:19.758Z,0.30
2023-05-04T04:00:49.976Z,0.15
2023-05-04T04:03:20.522Z,0.20
2023-05-04T04:05:50.974Z,0.30
2023-05-04T04:08:30.210Z,0.20
2023-05-04T04:11:01.300Z,0.30
2023-05-04T04:13:31.534Z,0.30
2023-05-04T04:16:01.878Z,0.20
2023-05-04T04:18:32.049Z,0.10
2023-05-04T04:21:02.610Z,0.20
2023-05-04T04:23:32.782Z,0.20
2023-05-04T04:26:03.997Z,0.30
2023-05-04T04:28:34.983Z,0.30
2023-05-04T04:31:05.690Z,0.30
2023-05-04T04:33:36.358Z,0.20
2023-05-04T04:36:06.892Z,0.47
2023-05-04T04:38:37.302Z,0.20
2023-05-04T04:41:08.110Z,0.30
2023-05-04T04:43:38.415Z,0.50
2023-05-04T04:46:09.960Z,0.30
2023-05-04T04:48:40.139Z,0.20
2023-05-04T04:51:14.095Z,0.30
2023-05-04T04:53:44.357Z,0.32
2023-05-04T04:56:14.713Z,0.30
2023-05-04T04:58:45.010Z,0.20
2023-05-04T05:01:19.605Z,0.20
2023-05-04T05:03:51.699Z,0.40
2023-05-04T05:06:22.483Z,0.30
2023-05-04T05:08:53.161Z,0.22
2023-05-04T05:11:23.388Z,0.30
2023-05-04T05:13:53.604Z,0.40
2023-05-04T05:16:24.469Z,0.30
2023-05-04T05:18:54.762Z,0.20
2023-05-04T05:21:25.112Z,0.40
2023-05-04T05:23:55.437Z,0.40
2023-05-04T05:26:26.524Z,0.20
2023-05-04T05:28:56.661Z,0.20
2023-05-04T05:31:27.033Z,0.40
2023-05-04T05:33:57.462Z,0.50
2023-05-04T05:36:27.991Z,0.30
2023-05-04T05:38:58.237Z,0.28
2023-05-04T05:41:28.716Z,0.30
2023-05-04T05:43:58.931Z,0.30
2023-05-04T05:46:30.254Z,0.30
2023-05-04T05:49:00.620Z,0.35
2023-05-04T05:51:31.286Z,0.50
2023-05-04T05:54:01.561Z,0.40
2023-05-04T05:56:31.882Z,0.40
2023-05-04T05:59:02.114Z,0.30
2023-05-04T06:01:32.370Z,0.20
2023-05-04T06:04:02.844Z,0.32
2023-05-04T06:06:33.253Z,0.20
2023-05-04T06:09:03.505Z,0.40
2023-05-04T06:11:34.110Z,0.22
2023-05-04T06:14:04.576Z,0.32
2023-05-04T06:16:34.892Z,0.47
2023-05-04T06:19:05.141Z,0.20
2023-05-04T06:21:35.410Z,0.40
2023-05-04T06:24:05.686Z,0.30
2023-05-04T06:26:36.048Z,0.40
2023-05-04T06:29:06.366Z,0.40
2023-05-04T06:31:37.365Z,0.40
2023-05-04T06:34:07.782Z,0.40
2023-05-04T06:36:38.136Z,0.60
2023-05-04T06:39:08.372Z,0.40
2023-05-04T06:41:41.205Z,0.20
2023-05-04T06:44:11.744Z,0.20
2023-05-04T06:46:42.226Z,0.20
2023-05-04T06:49:12.372Z,0.30
2023-05-04T06:51:43.994Z,0.28
2023-05-04T06:54:14.833Z,0.40
2023-05-04T06:56:45.485Z,0.60
2023-05-04T06:59:15.905Z,0.45
2023-05-04T07:01:47.438Z,0.28
2023-05-04T07:04:24.885Z,0.30
2023-05-04T07:06:55.489Z,0.20
2023-05-04T07:09:25.668Z,0.65
2023-05-04T07:11:56.046Z,0.38
2023-05-04T07:14:26.218Z,0.32
2023-05-04T07:16:57.576Z,0.40
2023-05-04T07:19:27.874Z,0.55
2023-05-04T07:21:59.918Z,0.28
2023-05-04T07:24:33.171Z,0.30
2023-05-04T07:27:03.652Z,0.30
2023-05-04T07:29:33.931Z,0.45
2023-05-04T07:32:04.532Z,0.30
2023-05-04T07:34:45.014Z,0.32
2023-05-04T07:37:19.868Z,0.30
2023-05-04T07:39:50.096Z,0.55
2023-05-04T07:42:20.393Z,0.30
2023-05-04T07:44:51.447Z,0.30
2023-05-04T07:47:23.104Z,0.30
2023-05-04T07:49:54.726Z,0.30
2023-05-04T07:52:25.695Z,0.40
2023-05-04T07:54:56.608Z,0.30
2023-05-04T07:57:27.003Z,0.30
2023-05-04T07:59:58.379Z,0.65
2023-05-04T08:02:28.669Z,0.50
2023-05-04T08:04:58.969Z,0.40
2023-05-04T08:07:29.185Z,0.40
2023-05-04T08:10:02.223Z,0.28
2023-05-04T08:12:32.733Z,0.32
2023-05-04T08:15:03.144Z,0.60
2023-05-04T08:17:33.487Z,0.60
2023-05-04T08:20:04.267Z,0.43
2023-05-04T08:22:35.135Z,0.30
2023-05-04T08:25:05.702Z,0.40
2023-05-04T08:27:36.379Z,0.40
2023-05-04T08:30:07.053Z,0.40
2023-05-04T08:32:37.576Z,0.50
2023-05-04T08:35:08.255Z,0.50
2023-05-04T08:37:38.497Z,0.40
2023-05-04T08:40:09.304Z,0.52
2023-05-04T08:42:39.648Z,0.60
2023-05-04T08:45:11.870Z,0.40
2023-05-04T08:47:44.958Z,0.50
2023-05-04T08:50:16.009Z,0.50
2023-05-04T08:52:49.414Z,0.60
2023-05-04T08:55:20.333Z,0.30
2023-05-04T08:57:51.154Z,0.40
2023-05-04T09:00:22.270Z,0.40
2023-05-04T09:02:53.781Z,0.52
2023-05-04T09:05:24.330Z,0.30
2023-05-04T09:07:55.707Z,0.32
2023-05-04T09:10:28.838Z,0.28
2023-05-04T09:12:59.822Z,0.52
2023-05-04T09:15:30.048Z,0.43
2023-05-04T09:18:07.280Z,0.50
2023-05-04T09:20:51.080Z,0.30
2023-05-04T09:23:21.673Z,0.30
2023-05-04T09:25:57.154Z,0.80
2023-05-04T09:28:40.963Z,0.40
2023-05-04T09:31:13.605Z,0.30
2023-05-04T09:33:44.526Z,0.57
2023-05-04T09:36:22.813Z,0.40
2023-05-04T09:38:53.094Z,0.43
2023-05-04T09:41:35.363Z,0.40
2023-05-04T09:44:06.336Z,0.30
2023-05-04T09:46:37.039Z,0.38
2023-05-04T09:49:07.287Z,0.40
2023-05-04T09:51:38.115Z,0.57
2023-05-04T09:54:08.563Z,0.40
2023-05-04T09:56:49.428Z,0.40
2023-05-04T09:59:22.344Z,0.30
2023-05-04T10:01:54.204Z,0.43
2023-05-04T10:04:24.789Z,0.60
2023-05-04T10:06:57.544Z,0.65
2023-05-04T10:09:32.293Z,0.30
2023-05-04T10:12:03.672Z,0.40
2023-05-04T10:14:37.625Z,0.55
2023-05-04T10:17:23.430Z,0.60
2023-05-04T10:20:14.575Z,0.50
2023-05-04T10:23:05.274Z,0.40
2023-05-04T10:25:57.450Z,0.47
2023-05-04T10:28:43.542Z,0.68
2023-05-04T10:31:13.939Z,0.80
2023-05-04T10:33:45.489Z,0.60
2023-05-04T10:36:15.753Z,0.77
2023-05-04T10:38:46.128Z,0.90
2023-05-04T10:41:17.120Z,0.70
2023-05-04T10:43:54.733Z,1.00
2023-05-04T10:46:25.948Z,0.70
2023-05-04T10:48:56.179Z,1.33
2023-05-04T10:51:35.723Z,1.00
2023-05-04T10:54:23.203Z,1.10
2023-05-04T10:57:22.070Z,0.88
2023-05-04T11:00:02.637Z,0.85
2023-05-04T11:02:35.701Z,1.10
2023-05-04T11:05:10.275Z,1.00
2023-05-04T11:07:42.058Z,0.73
2023-05-04T11:10:27.575Z,1.00
2023-05-04T11:13:06.094Z,0.80
2023-05-04T11:15:50.704Z,1.20
2023-05-04T11:18:39.015Z,0.82
2023-05-04T11:21:12.498Z,1.10
2023-05-04T11:23:43.168Z,0.80
2023-05-04T11:26:16.449Z,1.08
2023-05-04T11:28:46.762Z,0.80
2023-05-04T11:31:18.784Z,0.80
2023-05-04T11:33:53.978Z,0.88
2023-05-04T11:36:25.135Z,1.00
2023-05-04T11:38:59.408Z,0.80
2023-05-04T11:41:31.332Z,0.80
2023-05-04T11:44:03.514Z,1.08
2023-05-04T11:46:36.421Z,1.23
2023-05-04T11:49:08.141Z,0.88
2023-05-04T11:51:38.682Z,1.00
2023-05-04T11:54:09.320Z,1.05
2023-05-04T11:56:46.050Z,1.00
2023-05-04T11:59:16.399Z,0.90
2023-05-04T12:01:46.815Z,1.00
2023-05-04T12:04:17.568Z,0.95
2023-05-04T12:06:48.220Z,1.02
2023-05-04T12:09:18.828Z,1.40
2023-05-04T12:11:58.296Z,1.08
2023-05-04T12:14:30.104Z,1.15
2023-05-04T12:17:03.622Z,1.77
2023-05-04T12:19:34.478Z,1.15
2023-05-04T12:22:06.800Z,1.00
2023-05-04T12:24:37.679Z,1.20
2023-05-04T12:27:14.279Z,1.50
2023-05-04T12:29:44.587Z,1.10
2023-05-04T12:32:15.067Z,1.20
2023-05-04T12:34:45.340Z,1.23
2023-05-04T12:37:15.536Z,1.13
2023-05-04T12:39:45.785Z,1.33
2023-05-04T12:42:16.033Z,1.20
2023-05-04T12:44:46.242Z,0.93
2023-05-04T12:47:17.059Z,1.00
2023-05-04T12:49:47.331Z,1.23
2023-05-04T12:52:18.009Z,1.40
2023-05-04T12:54:48.356Z,1.38
2023-05-04T12:57:18.732Z,1.00
2023-05-04T12:59:49.021Z,1.08
2023-05-04T13:02:19.247Z,1.27
2023-05-04T13:04:51.558Z,1.08
2023-05-04T13:07:21.707Z,1.10
2023-05-04T13:09:51.956Z,1.38
2023-05-04T13:12:22.124Z,1.17
2023-05-04T13:14:56.916Z,1.13
2023-05-04T13:17:28.362Z,1.10
2023-05-04T13:19:58.676Z,1.20
2023-05-04T13:22:29.074Z,1.10
2023-05-04T13:24:59.259Z,1.15
2023-05-04T13:27:29.602Z,0.98
2023-05-04T13:30:00.250Z,1.35
2023-05-04T13:32:30.778Z,1.00
2023-05-04T13:35:01.346Z,1.15
2023-05-04T13:37:31.532Z,1.30
2023-05-04T13:40:03.126Z,1.10
2023-05-04T13:42:35.019Z,0.85
2023-05-04T13:45:07.321Z,1.08
2023-05-04T13:47:41.986Z,1.33
2023-05-04T13:50:12.913Z,1.20
2023-05-04T13:52:43.378Z,1.30
2023-05-04T13:55:14.696Z,1.35
2023-05-04T13:57:45.522Z,1.00
2023-05-04T14:00:17.874Z,1.58
2023-05-04T14:02:48.397Z,1.45
2023-05-04T14:05:18.754Z,1.08
2023-05-04T14:07:49.021Z,1.20
2023-05-04T14:10:19.420Z,1.23
2023-05-04T14:12:49.653Z,1.27
2023-05-04T14:15:24.021Z,1.30
2023-05-04T14:17:54.354Z,1.35
2023-05-04T14:20:24.585Z,1.20
2023-05-04T14:22:54.842Z,1.30
2023-05-04T14:25:25.134Z,1.17
2023-05-04T14:27:55.423Z,1.50
2023-05-04T14:30:25.812Z,1.20
2023-05-04T14:32:59.795Z,1.63
2023-05-04T14:35:30.192Z,1.60
2023-05-04T14:38:00.454Z,1.55
2023-05-04T14:40:30.941Z,1.75
2023-05-04T14:43:02.641Z,1.50
2023-05-04T14:45:32.896Z,1.70
2023-05-04T14:48:04.007Z,1.77
2023-05-04T14:50:34.424Z,1.92
2023-05-04T14:53:04.726Z,1.75
2023-05-04T14:55:35.947Z,2.03
2023-05-04T14:58:06.153Z,1.90
2023-05-04T15:00:36.498Z,2.60
2023-05-04T15:03:09.984Z,1.80
2023-05-04T15:05:40.302Z,1.83
2023-05-04T15:08:10.636Z,2.10
2023-05-04T15:10:40.938Z,1.70
2023-05-04T15:13:11.366Z,2.20
2023-05-04T15:15:45.308Z,2.10
2023-05-04T15:18:15.773Z,1.92
2023-05-04T15:20:45.988Z,1.90
2023-05-04T15:23:16.495Z,2.08
2023-05-04T15:26:02.784Z,2.25
2023-05-04T15:28:32.955Z,2.40
2023-05-04T15:31:05.027Z,2.13
2023-05-04T15:33:35.602Z,2.13
2023-05-04T15:36:12.647Z,2.28
2023-05-04T15:38:43.186Z,1.80
2023-05-04T15:41:15.629Z,1.80
2023-05-04T15:43:46.029Z,2.13
2023-05-04T15:46:16.374Z,2.33
2023-05-04T15:48:46.671Z,2.40
2023-05-04T15:51:17.165Z,2.10
2023-05-04T15:53:48.397Z,2.00
2023-05-04T15:56:18.785Z,1.90
2023-05-04T15:58:49.192Z,1.98
2023-05-04T16:01:19.515Z,2.40
2023-05-04T16:03:50.028Z,2.22
2023-05-04T16:06:21.623Z,2.40
2023-05-04T16:08:52.012Z,2.35
2023-05-04T16:11:22.697Z,2.33
2023-05-04T16:13:53.285Z,1.90
2023-05-04T16:16:23.517Z,1.70
2023-05-04T16:18:54.682Z,2.38
2023-05-04T16:21:25.854Z,2.35
2023-05-04T16:23:56.777Z,1.83
2023-05-04T16:26:27.135Z,2.13
2023-05-04T16:28:58.277Z,2.28
2023-05-04T16:31:28.861Z,2.15
2023-05-04T16:33:59.587Z,2.22
2023-05-04T16:36:29.810Z,2.15
2023-05-04T16:39:00.219Z,2.10
2023-05-04T16:41:32.391Z,2.53
2023-05-04T16:44:02.759Z,2.10
2023-05-04T16:46:32.970Z,2.10
2023-05-04T16:49:03.191Z,2.55
2023-05-04T16:51:33.700Z,2.22
2023-05-04T16:54:04.806Z,2.08
2023-05-04T16:56:35.224Z,2.40
2023-05-04T16:59:05.867Z,2.20
2023-05-04T17:01:36.974Z,2.20
2023-05-04T17:04:07.430Z,2.40
2023-05-04T17:06:38.554Z,2.00
2023-05-04T17:09:08.752Z,2.35
2023-05-04T17:11:39.055Z,2.28
2023-05-04T17:14:09.276Z,2.70
2023-05-04T17:16:39.629Z,2.45
2023-05-04T17:19:11.256Z,2.63
2023-05-04T17:21:41.912Z,2.22
2023-05-04T17:24:12.238Z,2.03
2023-05-04T17:26:42.763Z,2.30
2023-05-04T17:29:13.606Z,2.03
2023-05-04T17:31:43.821Z,1.90
2023-05-04T17:34:14.103Z,1.98
2023-05-04T17:36:44.496Z,2.00
2023-05-04T17:39:14.754Z,1.90
2023-05-04T17:41:45.169Z,2.20
2023-05-04T17:44:15.356Z,2.20
2023-05-04T17:46:45.892Z,2.40
2023-05-04T17:49:16.135Z,1.90
2023-05-04T17:51:47.040Z,2.00
2023-05-04T17:54:17.961Z,2.25
2023-05-04T17:56:48.452Z,1.90
2023-05-04T17:59:19.422Z,2.22
2023-05-04T18:01:49.648Z,1.90
2023-05-04T18:04:19.863Z,1.98
2023-05-04T18:06:50.877Z,1.83
2023-05-04T18:09:21.515Z,2.13
2023-05-04T18:11:51.714Z,1.88
2023-05-04T18:14:21.937Z,2.00
2023-05-04T18:16:52.363Z,1.63
2023-05-04T18:19:26.571Z,1.83
2023-05-04T18:21:57.156Z,1.65
2023-05-04T18:24:27.634Z,1.80
2023-05-04T18:26:58.178Z,1.77
2023-05-04T18:29:28.551Z,1.77
2023-05-04T18:31:59.511Z,1.77
2023-05-04T18:34:29.863Z,1.40
2023-05-04T18:37:00.142Z,1.95
2023-05-04T18:39:30.325Z,1.85
2023-05-04T18:42:02.842Z,2.05
2023-05-04T18:44:33.051Z,1.88
2023-05-04T18:47:03.561Z,1.63
2023-05-04T18:49:33.775Z,1.70
2023-05-04T18:52:04.853Z,1.58
2023-05-04T18:54:38.329Z,1.63
2023-05-04T18:57:08.597Z,1.83
2023-05-04T18:59:38.871Z,2.00
2023-05-04T19:02:09.982Z,1.63
2023-05-04T19:04:40.467Z,1.83
2023-05-04T19:07:13.660Z,1.70
2023-05-04T19:09:44.021Z,1.70
2023-05-04T19:12:14.355Z,2.00
2023-05-04T19:14:47.592Z,1.70
2023-05-04T19:17:19.140Z,1.55
2023-05-04T19:19:49.429Z,1.70
2023-05-04T19:22:19.855Z,1.80
2023-05-04T19:24:53.257Z,1.88
2023-05-04T19:27:23.815Z,1.63
2023-05-04T19:29:54.084Z,1.50
2023-05-04T19:32:25.060Z,1.50
2023-05-04T19:34:55.764Z,1.67
2023-05-04T19:37:26.196Z,1.52
2023-05-04T19:39:56.416Z,1.63
2023-05-04T19:42:26.752Z,1.80
2023-05-04T19:44:57.084Z,1.90
2023-05-04T19:47:27.488Z,1.88
2023-05-04T19:49:57.672Z,1.50
2023-05-04T19:52:28.016Z,1.75
2023-05-04T19:54:58.246Z,1.70
2023-05-04T19:57:28.837Z,1.50
2023-05-04T19:59:59.176Z,1.58
2023-05-04T20:02:30.449Z,1.70
2023-05-04T20:05:00.870Z,1.50
2023-05-04T20:07:31.293Z,1.30
2023-05-04T20:10:01.739Z,1.73
2023-05-04T20:12:32.159Z,1.50
2023-05-04T20:15:02.464Z,1.20
2023-05-04T20:17:33.195Z,1.60
2023-05-04T20:20:07.916Z,1.60
2023-05-04T20:22:40.811Z,1.40
2023-05-04T20:25:12.371Z,1.53
2023-05-04T20:27:42.840Z,1.60
2023-05-04T20:30:13.420Z,1.65
2023-05-04T20:32:44.450Z,1.50
2023-05-04T20:35:14.858Z,1.57
2023-05-04T20:37:45.226Z,1.53
2023-05-04T20:40:18.246Z,1.33
2023-05-04T20:42:48.825Z,1.67
2023-05-04T20:45:18.962Z,1.43
2023-05-04T20:47:49.364Z,1.30
2023-05-04T20:50:20.016Z,1.40
2023-05-04T20:52:50.233Z,1.17
2023-05-04T20:55:20.768Z,1.23
2023-05-04T20:57:51.530Z,1.10
2023-05-04T21:00:21.963Z,1.30
2023-05-04T21:02:55.435Z,1.00
2023-05-04T21:05:25.659Z,1.10
2023-05-04T21:07:56.003Z,1.07
2023-05-04T21:10:26.691Z,1.10
2023-05-04T21:12:58.682Z,1.03
2023-05-04T21:15:28.983Z,1.10
2023-05-04T21:17:59.825Z,1.07
2023-05-04T21:20:30.416Z,0.93
2023-05-04T21:23:01.114Z,1.08
2023-05-04T21:25:31.344Z,0.90
2023-05-04T21:28:02.384Z,1.15
2023-05-04T21:30:33.093Z,1.10
2023-05-04T21:33:03.574Z,0.80
2023-05-04T21:35:33.799Z,1.20
2023-05-04T21:38:04.139Z,1.25
2023-05-04T21:40:34.474Z,1.00
2023-05-04T21:43:04.844Z,0.80
2023-05-04T21:45:35.386Z,0.83
2023-05-04T21:48:06.575Z,0.90
2023-05-04T21:50:37.340Z,0.87
2023-05-04T21:53:07.847Z,1.00
2023-05-04T21:55:38.483Z,1.03
2023-05-04T21:58:09.201Z,0.73
2023-05-04T22:00:40.407Z,0.70
2023-05-04T22:03:10.969Z,0.87
2023-05-04T22:05:41.385Z,0.90
2023-05-04T22:08:15.611Z,0.93
2023-05-04T22:10:45.734Z,0.70
2023-05-04T22:13:16.061Z,0.80
2023-05-04T22:15:52.663Z,0.85
2023-05-04T22:18:40.174Z,0.70
2023-05-04T22:21:30.337Z,0.80
2023-05-04T22:24:00.968Z,0.90
2023-05-04T22:26:31.171Z,0.80
2023-05-04T22:29:01.431Z,0.90
2023-05-04T22:31:31.725Z,0.70
2023-05-04T22:34:02.052Z,0.75
2023-05-04T22:36:32.276Z,0.82
2023-05-04T22:39:02.430Z,0.90
2023-05-04T22:41:32.784Z,1.20
2023-05-04T22:44:03.103Z,0.68
2023-05-04T22:46:33.489Z,0.80
2023-05-04T22:49:03.695Z,0.93
2023-05-04T22:51:34.223Z,0.70
2023-05-04T22:54:04.596Z,0.80
2023-05-04T22:56:34.862Z,0.80
2023-05-04T22:59:05.092Z,0.60
2023-05-04T23:01:35.814Z,0.73
2023-05-04T23:04:06.376Z,0.80
2023-05-04T23:06:36.583Z,0.52
2023-05-04T23:09:06.831Z,0.73
2023-05-04T23:11:37.037Z,0.90
2023-05-04T23:14:07.280Z,0.90
2023-05-04T23:16:37.659Z,0.68
2023-05-04T23:19:08.495Z,0.77
2023-05-04T23:21:38.741Z,0.60
2023-05-04T23:24:09.838Z,0.70
2023-05-04T23:26:40.161Z,0.60
2023-05-04T23:29:10.951Z,0.90
2023-05-04T23:31:41.387Z,0.80
2023-05-04T23:34:11.729Z,0.60
2023-05-04T23:36:42.119Z,0.60
2023-05-04T23:39:12.744Z,0.50
2023-05-04T23:41:43.274Z,0.75
2023-05-04T23:44:13.591Z,0.40
2023-05-04T23:46:44.040Z,0.47
2023-05-04T23:49:14.321Z,0.43
2023-05-04T23:51:44.588Z,0.63
2023-05-04T23:54:16.922Z,0.40
2023-05-04T23:56:47.395Z,0.40
2023-05-04T23:59:17.762Z,0.50
